Terminal Aerodrome Forecast
Issued by NWS

Current Version | Previous Version | Text Only | Print | Product List | Glossary On
Versions: 1 2 3 4 5 6 7 8 9 10 11 12 13 14 15 16 17 18 19 20 21
000
FTUS41 KRNK 302326
TAFLWB
TAF
KLWB 302326Z 3100/3124 31003KT P6SM SKC
     FM310600 VRB03KT P6SM BKN030
     FM311300 13003KT P6SM BKN045
     FM312100 27003KT 5SM -SHRA OVC035=

USA.gov is the U.S. government's official web portal to all federal, state and local government web resources and services.